createdAt,value
2018-08-22T00:01:38.853Z,20.00
2018-08-22T00:04:07.998Z,20.00
2018-08-22T00:06:37.306Z,20.00
2018-08-22T00:09:07.927Z,20.00
2018-08-22T00:11:36.792Z,20.00
2018-08-22T00:14:05.665Z,20.00
2018-08-22T00:16:34.475Z,20.10
2018-08-22T00:19:03.285Z,20.00
2018-08-22T00:21:32.104Z,20.10
2018-08-22T00:24:00.934Z,20.00
2018-08-22T00:26:29.801Z,20.10
2018-08-22T00:28:58.620Z,20.10
2018-08-22T00:31:27.467Z,20.00
2018-08-22T00:33:56.316Z,20.00
2018-08-22T00:36:25.572Z,20.00
2018-08-22T00:38:54.397Z,19.90
2018-08-22T00:41:23.226Z,19.90
2018-08-22T00:43:52.080Z,19.90
2018-08-22T00:46:20.910Z,19.80
2018-08-22T00:48:49.713Z,19.80
2018-08-22T00:51:18.626Z,19.80
2018-08-22T00:53:47.485Z,19.70
2018-08-22T00:56:16.324Z,19.70
2018-08-22T00:58:45.183Z,19.60
2018-08-22T01:01:14.002Z,19.60
2018-08-22T01:03:42.903Z,19.60
2018-08-22T01:06:11.717Z,19.60
2018-08-22T01:08:40.556Z,19.60
2018-08-22T01:11:09.417Z,19.50
2018-08-22T01:13:38.250Z,19.50
2018-08-22T01:16:07.310Z,19.50
2018-08-22T01:18:36.186Z,19.50
2018-08-22T01:21:05.750Z,19.50
2018-08-22T01:23:34.941Z,19.50
2018-08-22T01:26:03.790Z,19.50
2018-08-22T01:28:32.650Z,19.40
2018-08-22T01:31:01.495Z,19.40
2018-08-22T01:33:30.331Z,19.40
2018-08-22T01:35:59.183Z,19.40
2018-08-22T01:38:28.022Z,19.40
2018-08-22T01:40:56.885Z,19.40
2018-08-22T01:43:26.746Z,19.40
2018-08-22T01:45:55.593Z,19.40
2018-08-22T01:48:24.400Z,19.40
2018-08-22T01:50:53.242Z,19.40
2018-08-22T01:53:22.073Z,19.40
2018-08-22T01:55:50.929Z,19.30
2018-08-22T01:58:19.787Z,19.30
2018-08-22T02:00:48.631Z,19.30
2018-08-22T02:03:17.503Z,19.20
2018-08-22T02:05:46.407Z,19.20
2018-08-22T02:08:15.234Z,19.20
2018-08-22T02:10:44.095Z,19.20
2018-08-22T02:13:13.586Z,19.20
2018-08-22T02:15:42.462Z,19.20
2018-08-22T02:18:11.291Z,19.20
2018-08-22T02:20:40.137Z,19.20
2018-08-22T02:23:08.979Z,19.20
2018-08-22T02:25:37.853Z,19.20
2018-08-22T02:28:06.673Z,19.20
2018-08-22T02:30:35.871Z,19.20
2018-08-22T02:33:04.737Z,19.20
2018-08-22T02:35:33.739Z,19.20
2018-08-22T02:38:02.603Z,19.10
2018-08-22T02:40:31.476Z,19.10
2018-08-22T02:43:00.434Z,19.10
2018-08-22T02:45:29.347Z,19.10
2018-08-22T02:47:58.209Z,19.00
2018-08-22T02:50:27.247Z,19.00
2018-08-22T02:52:56.110Z,19.00
2018-08-22T02:55:24.939Z,19.00
2018-08-22T02:57:53.783Z,18.90
2018-08-22T03:00:22.625Z,18.90
2018-08-22T03:02:51.455Z,18.90
2018-08-22T03:05:20.300Z,18.90
2018-08-22T03:07:49.130Z,18.80
2018-08-22T03:10:17.971Z,18.80
2018-08-22T03:12:46.786Z,18.70
2018-08-22T03:15:15.615Z,18.70
2018-08-22T03:17:44.487Z,18.70
2018-08-22T03:20:13.328Z,18.60
2018-08-22T03:22:42.437Z,18.60
2018-08-22T03:25:11.278Z,18.60
2018-08-22T03:27:40.126Z,18.50
2018-08-22T03:30:08.972Z,18.50
2018-08-22T03:32:37.832Z,18.50
2018-08-22T03:35:07.012Z,18.50
2018-08-22T03:37:35.836Z,18.50
2018-08-22T03:40:04.690Z,18.50
2018-08-22T03:42:33.518Z,18.50
2018-08-22T03:45:02.394Z,18.50
2018-08-22T03:47:31.213Z,18.50
2018-08-22T03:50:00.059Z,18.40
2018-08-22T03:52:28.886Z,18.50
2018-08-22T03:54:57.726Z,18.40
2018-08-22T03:57:26.547Z,18.40
2018-08-22T03:59:55.406Z,18.40
2018-08-22T04:02:24.250Z,18.40
2018-08-22T04:04:53.096Z,18.30
2018-08-22T04:07:21.959Z,18.30
2018-08-22T04:09:50.925Z,18.20
2018-08-22T04:12:19.839Z,18.20
2018-08-22T04:14:48.887Z,18.20
2018-08-22T04:17:17.767Z,18.20
2018-08-22T04:19:46.635Z,18.20
2018-08-22T04:22:16.033Z,18.20
2018-08-22T04:24:44.857Z,18.20
2018-08-22T04:27:13.727Z,18.20
2018-08-22T04:29:42.530Z,18.20
2018-08-22T04:32:11.368Z,18.20
2018-08-22T04:34:40.229Z,18.20
2018-08-22T04:37:09.068Z,18.20
2018-08-22T04:39:37.935Z,18.20
2018-08-22T04:42:06.783Z,18.20
2018-08-22T04:44:35.681Z,18.20
2018-08-22T04:47:04.927Z,18.20
2018-08-22T04:49:33.806Z,18.10
2018-08-22T04:52:02.740Z,18.10
2018-08-22T04:54:31.836Z,18.10
2018-08-22T04:57:00.770Z,18.10
2018-08-22T04:59:29.616Z,18.10
2018-08-22T05:01:58.212Z,18.10
2018-08-22T05:04:27.074Z,18.10
2018-08-22T05:06:55.987Z,18.20
2018-08-22T05:09:24.811Z,18.20
2018-08-22T05:11:53.664Z,18.20
2018-08-22T05:14:22.527Z,18.20
2018-08-22T05:16:51.379Z,18.20
2018-08-22T05:19:19.738Z,18.30
2018-08-22T05:21:48.664Z,18.30
2018-08-22T05:24:17.799Z,18.30
2018-08-22T05:26:46.628Z,18.40
2018-08-22T05:29:15.462Z,18.40
2018-08-22T05:31:44.340Z,18.50
2018-08-22T05:34:13.209Z,18.50
2018-08-22T05:36:42.084Z,18.50
2018-08-22T05:39:12.547Z,18.60
2018-08-22T05:41:41.983Z,18.60
2018-08-22T05:44:10.943Z,18.70
2018-08-22T05:46:39.823Z,18.70
2018-08-22T05:49:08.690Z,18.80
2018-08-22T05:51:37.742Z,18.90
2018-08-22T05:54:06.658Z,19.00
2018-08-22T05:56:35.595Z,19.00
2018-08-22T05:59:04.449Z,19.10
2018-08-22T06:01:33.048Z,19.20
2018-08-22T06:04:01.884Z,19.20
2018-08-22T06:06:32.356Z,19.30
2018-08-22T06:09:01.247Z,19.30
2018-08-22T06:11:30.450Z,19.30
2018-08-22T06:13:59.312Z,19.30
2018-08-22T06:16:28.151Z,19.40
2018-08-22T06:18:56.995Z,19.40
2018-08-22T06:21:25.873Z,19.40
2018-08-22T06:23:54.716Z,19.50
2018-08-22T06:26:23.568Z,19.60
2018-08-22T06:28:52.452Z,19.70
2018-08-22T06:31:21.290Z,19.80
2018-08-22T06:33:50.164Z,19.80
2018-08-22T06:36:19.036Z,19.90
2018-08-22T06:38:48.030Z,20.10
2018-08-22T06:41:16.919Z,20.10
2018-08-22T06:43:45.777Z,20.20
2018-08-22T06:46:14.785Z,20.30
2018-08-22T06:48:43.606Z,20.40
2018-08-22T06:51:12.507Z,20.60
2018-08-22T06:53:41.347Z,20.60
2018-08-22T06:56:10.223Z,20.70
2018-08-22T06:58:39.050Z,20.70
2018-08-22T07:01:07.356Z,20.90
2018-08-22T07:03:36.218Z,20.90
2018-08-22T07:06:05.115Z,20.90
2018-08-22T07:08:33.947Z,20.80
2018-08-22T07:11:02.810Z,20.80
2018-08-22T07:13:31.641Z,20.90
2018-08-22T07:16:00.467Z,21.00
2018-08-22T07:18:29.333Z,21.10
2018-08-22T07:20:58.209Z,21.30
2018-08-22T07:23:27.242Z,21.40
2018-08-22T07:25:56.089Z,21.40
2018-08-22T07:28:24.917Z,21.50
2018-08-22T07:30:53.770Z,21.50
2018-08-22T07:33:22.663Z,21.50
2018-08-22T07:35:51.595Z,21.50
2018-08-22T07:38:20.636Z,21.50
2018-08-22T07:40:49.503Z,21.50
2018-08-22T07:43:18.406Z,21.50
2018-08-22T07:45:47.449Z,21.60
2018-08-22T07:48:16.305Z,21.60
2018-08-22T07:50:45.172Z,21.70
2018-08-22T07:53:14.122Z,21.70
2018-08-22T07:55:43.459Z,21.80
2018-08-22T07:58:12.339Z,21.80
2018-08-22T08:00:41.582Z,21.90
2018-08-22T08:03:10.126Z,22.10
2018-08-22T08:05:39.005Z,22.10
2018-08-22T08:08:07.927Z,22.10
2018-08-22T08:10:37.430Z,22.20
2018-08-22T08:13:13.608Z,22.30
2018-08-22T08:15:42.749Z,22.40
2018-08-22T08:18:11.684Z,22.40
2018-08-22T08:20:40.816Z,22.50
2018-08-22T08:23:09.733Z,22.50
2018-08-22T08:25:38.628Z,22.60
2018-08-22T08:28:07.492Z,22.70
2018-08-22T08:30:36.420Z,22.80
2018-08-22T08:33:05.811Z,22.80
2018-08-22T08:35:34.928Z,22.90
2018-08-22T08:38:04.025Z,22.90
2018-08-22T08:40:32.867Z,23.00
2018-08-22T08:43:02.355Z,23.10
2018-08-22T08:45:31.223Z,23.10
2018-08-22T08:48:00.061Z,23.10
2018-08-22T08:50:29.003Z,23.20
2018-08-22T08:52:58.020Z,23.20
2018-08-22T08:55:26.892Z,23.20
2018-08-22T08:57:55.747Z,23.20
2018-08-22T09:00:24.760Z,23.20
2018-08-22T09:02:53.307Z,23.20
2018-08-22T09:05:22.268Z,23.20
2018-08-22T09:07:51.136Z,23.20
2018-08-22T09:10:20.005Z,23.30
2018-08-22T09:12:48.910Z,23.50
2018-08-22T09:15:17.741Z,23.60
2018-08-22T09:17:46.686Z,23.60
2018-08-22T09:20:15.696Z,23.70
2018-08-22T09:22:44.552Z,23.80
2018-08-22T09:25:13.359Z,23.90
2018-08-22T09:27:42.222Z,23.90
2018-08-22T09:30:11.072Z,23.90
2018-08-22T09:32:39.925Z,24.00
2018-08-22T09:35:08.770Z,24.10
2018-08-22T09:37:37.635Z,24.20
2018-08-22T09:40:06.510Z,24.20
2018-08-22T09:42:35.516Z,24.30
2018-08-22T09:45:04.571Z,24.10
2018-08-22T09:47:33.458Z,24.20
2018-08-22T09:50:02.353Z,24.20
2018-08-22T09:52:31.405Z,24.10
2018-08-22T09:55:01.764Z,24.00
2018-08-22T09:57:31.164Z,24.10
2018-08-22T10:00:00.106Z,24.10
2018-08-22T10:02:28.566Z,24.20
2018-08-22T10:04:58.781Z,24.00
2018-08-22T10:07:27.663Z,24.00
2018-08-22T10:09:56.684Z,24.10
2018-08-22T10:12:25.735Z,24.20
2018-08-22T10:14:54.594Z,24.20
2018-08-22T10:17:23.462Z,24.20
2018-08-22T10:19:52.504Z,24.20
2018-08-22T10:22:21.360Z,24.30
2018-08-22T10:24:50.248Z,24.50
2018-08-22T10:27:19.082Z,24.60
2018-08-22T10:29:47.937Z,24.70
2018-08-22T10:32:16.788Z,24.80
2018-08-22T10:34:45.671Z,24.80
2018-08-22T10:37:14.520Z,24.80
2018-08-22T10:39:43.093Z,25.00
2018-08-22T10:42:11.820Z,25.10
2018-08-22T10:44:40.397Z,25.30
2018-08-22T10:47:08.937Z,25.40
2018-08-22T10:49:37.501Z,25.50
2018-08-22T10:52:06.229Z,25.50
2018-08-22T10:54:35.009Z,25.40
2018-08-22T10:57:03.543Z,25.50
2018-08-22T10:59:32.623Z,25.70
2018-08-22T11:02:01.272Z,25.80
2018-08-22T11:04:29.943Z,25.50
2018-08-22T11:06:58.485Z,25.50
2018-08-22T11:09:27.315Z,25.30
2018-08-22T11:11:55.910Z,25.50
2018-08-22T11:14:24.743Z,25.40
2018-08-22T11:16:53.659Z,25.40
2018-08-22T11:19:22.188Z,25.20
2018-08-22T11:22:02.275Z,25.10
2018-08-22T11:24:42.004Z,25.20
2018-08-22T11:27:22.133Z,24.90
2018-08-22T11:30:01.940Z,24.90
2018-08-22T11:32:42.348Z,24.70
2018-08-22T11:35:10.171Z,24.80
2018-08-22T11:37:39.078Z,24.60
2018-08-22T11:40:07.904Z,24.70
2018-08-22T11:42:36.863Z,24.70
2018-08-22T11:45:05.683Z,24.70
2018-08-22T11:47:34.815Z,24.70
2018-08-22T11:50:03.691Z,24.70
2018-08-22T11:52:32.579Z,24.80
2018-08-22T11:55:01.447Z,24.80
2018-08-22T11:57:30.284Z,24.90
2018-08-22T11:59:59.132Z,24.90
2018-08-22T12:02:27.658Z,25.10
2018-08-22T12:04:56.200Z,25.30
2018-08-22T12:07:24.749Z,25.30
2018-08-22T12:09:53.678Z,25.30
2018-08-22T12:12:22.547Z,25.20
2018-08-22T12:14:51.427Z,25.00
2018-08-22T12:17:20.296Z,24.90
2018-08-22T12:19:49.144Z,24.80
2018-08-22T12:22:18.067Z,24.80
2018-08-22T12:24:46.933Z,24.70
2018-08-22T12:27:15.826Z,24.70
2018-08-22T12:29:44.614Z,24.80
2018-08-22T12:32:13.420Z,24.90
2018-08-22T12:34:42.260Z,24.90
2018-08-22T12:37:11.099Z,24.90
2018-08-22T12:39:40.260Z,24.90
2018-08-22T12:42:09.079Z,24.90
2018-08-22T12:44:37.977Z,25.00
2018-08-22T12:47:06.948Z,25.00
2018-08-22T12:49:35.798Z,25.10
2018-08-22T12:52:04.641Z,25.20
2018-08-22T12:54:33.171Z,25.40
2018-08-22T12:57:02.032Z,25.30
2018-08-22T12:59:31.637Z,25.10
2018-08-22T13:02:00.188Z,25.00
2018-08-22T13:04:29.100Z,24.90
2018-08-22T13:06:57.961Z,24.90
2018-08-22T13:09:26.783Z,25.00
2018-08-22T13:11:55.651Z,24.80
2018-08-22T13:14:24.500Z,24.90
2018-08-22T13:16:53.492Z,24.90
2018-08-22T13:22:15.900Z,24.80
2018-08-22T13:24:44.728Z,24.90
2018-08-22T13:27:13.857Z,24.90
2018-08-22T13:29:42.919Z,24.90
2018-08-22T13:32:11.727Z,24.90
2018-08-22T13:34:40.556Z,24.70
2018-08-22T13:37:09.092Z,24.80
2018-08-22T13:39:38.493Z,24.80
2018-08-22T13:42:07.223Z,24.90
2018-08-22T13:44:36.270Z,24.80
2018-08-22T13:47:04.808Z,24.90
2018-08-22T13:49:33.671Z,24.60
2018-08-22T13:52:02.301Z,24.70
2018-08-22T13:54:31.261Z,24.90
2018-08-22T13:57:00.493Z,25.10
2018-08-22T13:59:29.383Z,24.90
2018-08-22T14:01:57.957Z,24.90
2018-08-22T14:04:26.857Z,24.90
2018-08-22T14:06:55.720Z,25.00
2018-08-22T14:09:24.630Z,24.90
2018-08-22T14:11:53.828Z,25.10
2018-08-22T14:14:22.736Z,25.20
2018-08-22T14:16:51.666Z,24.80
2018-08-22T14:19:21.814Z,24.80
2018-08-22T14:21:50.722Z,24.80
2018-08-22T14:24:19.597Z,24.50
2018-08-22T14:26:48.491Z,24.30
2018-08-22T14:29:17.365Z,24.50
2018-08-22T14:31:46.264Z,24.60
2018-08-22T14:34:14.822Z,24.40
2018-08-22T14:36:43.752Z,24.30
2018-08-22T14:39:13.627Z,24.20
2018-08-22T14:41:43.218Z,24.30
2018-08-22T14:44:12.067Z,24.40
2018-08-22T14:46:40.962Z,24.70
2018-08-22T14:49:09.555Z,24.80
2018-08-22T14:51:38.224Z,24.50
2018-08-22T14:54:06.883Z,24.70
2018-08-22T14:56:35.923Z,24.50
2018-08-22T14:59:05.134Z,24.50
2018-08-22T15:01:33.737Z,24.80
2018-08-22T15:04:02.694Z,24.80
2018-08-22T15:06:31.312Z,24.80
2018-08-22T15:09:05.351Z,24.90
2018-08-22T15:11:35.640Z,25.10
2018-08-22T15:14:04.620Z,25.40
2018-08-22T15:16:33.234Z,25.70
2018-08-22T15:19:01.817Z,25.40
2018-08-22T15:21:30.407Z,25.50
2018-08-22T15:23:59.000Z,25.90
2018-08-22T15:26:27.577Z,26.20
2018-08-22T15:28:56.311Z,26.40
2018-08-22T15:31:24.942Z,26.50
2018-08-22T15:33:53.606Z,26.50
2018-08-22T15:36:22.828Z,26.60
2018-08-22T15:38:51.600Z,27.00
2018-08-22T15:41:20.221Z,27.10
2018-08-22T15:43:49.003Z,26.80
2018-08-22T15:46:17.607Z,26.90
2018-08-22T15:48:46.258Z,26.60
2018-08-22T15:51:15.116Z,26.50
2018-08-22T15:53:44.125Z,26.30
2018-08-22T15:56:12.725Z,26.60
2018-08-22T15:58:41.983Z,26.80
2018-08-22T16:01:10.756Z,26.70
2018-08-22T16:03:39.342Z,26.70
2018-08-22T16:06:08.264Z,26.80
2018-08-22T16:08:36.823Z,27.10
2018-08-22T16:11:07.645Z,27.30
2018-08-22T16:13:37.458Z,27.20
2018-08-22T16:16:06.032Z,26.90
2018-08-22T16:18:34.621Z,26.70
2018-08-22T16:21:04.781Z,26.70
2018-08-22T16:23:34.572Z,26.70
2018-08-22T16:26:04.696Z,26.30
2018-08-22T16:28:45.538Z,25.80
2018-08-22T16:31:14.151Z,25.70
2018-08-22T16:33:42.869Z,25.80
2018-08-22T16:36:15.710Z,25.70
2018-08-22T16:38:44.312Z,25.60
2018-08-22T16:41:12.868Z,25.80
2018-08-22T16:43:43.446Z,25.80
2018-08-22T16:46:14.221Z,25.80
2018-08-22T16:48:44.060Z,25.80
2018-08-22T16:51:12.666Z,25.60
2018-08-22T16:53:41.287Z,25.30
2018-08-22T16:56:09.839Z,25.20
2018-08-22T16:58:38.395Z,25.10
2018-08-22T17:01:06.688Z,24.90
2018-08-22T17:03:35.570Z,24.50
2018-08-22T17:06:09.901Z,24.20
2018-08-22T17:08:38.742Z,23.80
2018-08-22T17:11:08.286Z,23.40
2018-08-22T17:13:43.690Z,23.20
2018-08-22T17:16:12.583Z,23.10
2018-08-22T17:18:41.811Z,23.10
2018-08-22T17:21:10.994Z,22.80
2018-08-22T17:23:40.222Z,22.80
2018-08-22T17:26:11.847Z,22.60
2018-08-22T17:28:42.793Z,22.60
2018-08-22T17:31:12.411Z,22.50
2018-08-22T17:33:43.535Z,22.40
2018-08-22T17:36:12.967Z,22.30
2018-08-22T17:38:43.577Z,22.10
2018-08-22T17:41:12.740Z,22.00
2018-08-22T17:44:10.590Z,21.90
2018-08-22T17:46:42.538Z,21.80
2018-08-22T17:49:11.403Z,21.70
2018-08-22T17:52:05.067Z,21.70
2018-08-22T17:54:34.190Z,21.60
2018-08-22T17:57:15.370Z,21.50
2018-08-22T18:02:37.118Z,21.20
2018-08-22T18:05:06.368Z,21.20
2018-08-22T18:07:35.217Z,21.00
2018-08-22T18:10:04.142Z,21.10
2018-08-22T18:12:33.024Z,21.10
2018-08-22T18:15:03.107Z,21.10
2018-08-22T18:17:32.018Z,20.90
2018-08-22T18:20:01.228Z,20.90
2018-08-22T18:22:32.112Z,20.80
2018-08-22T18:25:08.100Z,20.70
2018-08-22T18:27:37.011Z,20.60
2018-08-22T18:30:09.093Z,20.60
2018-08-22T18:32:38.031Z,20.50
2018-08-22T18:35:10.037Z,20.40
2018-08-22T18:37:39.424Z,20.40
2018-08-22T18:40:17.624Z,20.30
2018-08-22T18:42:48.298Z,20.20
2018-08-22T18:45:17.593Z,20.10
2018-08-22T18:47:46.506Z,20.10
2018-08-22T18:50:15.400Z,20.00
2018-08-22T18:52:47.516Z,20.00
2018-08-22T18:55:16.790Z,19.90
2018-08-22T18:57:45.747Z,19.90
2018-08-22T19:00:14.684Z,19.90
2018-08-22T19:02:43.488Z,19.80
2018-08-22T19:05:23.496Z,19.80
2018-08-22T19:08:08.896Z,19.80
2018-08-22T19:10:39.104Z,19.70
2018-08-22T19:13:14.408Z,19.70
2018-08-22T19:15:46.976Z,19.70
2018-08-22T19:18:15.915Z,19.60
2018-08-22T19:20:44.862Z,19.60
2018-08-22T19:23:13.797Z,19.60
2018-08-22T19:25:45.296Z,19.50
2018-08-22T19:30:56.080Z,19.40
2018-08-22T19:33:26.145Z,19.40
2018-08-22T19:35:55.292Z,19.30
2018-08-22T19:38:25.705Z,19.30
2018-08-22T19:40:54.796Z,19.30
2018-08-22T19:43:23.783Z,19.20
2018-08-22T19:45:52.727Z,19.20
2018-08-22T19:48:22.018Z,19.20
2018-08-22T19:50:51.125Z,19.20
2018-08-22T19:53:20.082Z,19.20
2018-08-22T19:55:49.132Z,19.20
2018-08-22T19:58:28.161Z,19.20
2018-08-22T20:00:58.727Z,19.20
2018-08-22T20:03:31.932Z,19.20
2018-08-22T20:06:00.852Z,19.10
2018-08-22T20:08:36.659Z,19.10
2018-08-22T20:11:05.976Z,19.10
2018-08-22T20:13:47.232Z,19.10
2018-08-22T20:16:16.873Z,19.10
2018-08-22T20:18:48.072Z,19.10
2018-08-22T20:21:21.371Z,19.10
2018-08-22T20:23:51.714Z,19.00
2018-08-22T20:26:20.904Z,19.00
2018-08-22T20:28:52.835Z,19.00
2018-08-22T20:31:21.831Z,19.00
2018-08-22T20:34:02.703Z,19.00
2018-08-22T20:36:32.017Z,18.90
2018-08-22T20:39:07.138Z,18.90
2018-08-22T20:41:36.847Z,18.90
2018-08-22T20:44:09.604Z,18.90
2018-08-22T20:46:38.709Z,18.90
2018-08-22T20:49:07.786Z,18.90
2018-08-22T20:51:36.674Z,18.90
2018-08-22T20:54:10.857Z,18.90
2018-08-22T20:57:12.544Z,18.90
2018-08-22T20:59:41.630Z,18.80
2018-08-22T21:02:11.163Z,18.80
2018-08-22T21:04:40.507Z,18.80
2018-08-22T21:07:09.888Z,18.80
2018-08-22T21:09:38.864Z,18.80
2018-08-22T21:12:08.223Z,18.80
2018-08-22T21:14:37.281Z,18.80
2018-08-22T21:17:06.658Z,18.80
2018-08-22T21:19:36.293Z,18.70
2018-08-22T21:22:15.719Z,18.70
2018-08-22T21:24:45.123Z,18.70
2018-08-22T21:27:15.055Z,18.70
2018-08-22T21:29:44.467Z,18.70
2018-08-22T21:32:13.485Z,18.70
2018-08-22T21:34:42.508Z,18.70
2018-08-22T21:37:21.070Z,18.70
2018-08-22T21:39:50.345Z,18.70
2018-08-22T21:42:24.517Z,18.60
2018-08-22T21:44:53.528Z,18.70
2018-08-22T21:47:22.383Z,18.70
2018-08-22T21:49:51.415Z,18.60
2018-08-22T21:52:20.366Z,18.60
2018-08-22T21:54:49.404Z,18.60
2018-08-22T21:57:18.510Z,18.60
2018-08-22T21:59:55.494Z,18.60
2018-08-22T22:02:24.445Z,18.60
2018-08-22T22:04:53.500Z,18.50
2018-08-22T22:07:22.509Z,18.50
2018-08-22T22:09:52.032Z,18.50
2018-08-22T22:12:26.273Z,18.50
2018-08-22T22:14:55.221Z,18.40
2018-08-22T22:17:24.888Z,18.40
2018-08-22T22:19:53.829Z,18.40
2018-08-22T22:22:22.740Z,18.40
2018-08-22T22:24:56.960Z,18.30
2018-08-22T22:27:26.061Z,18.30
2018-08-22T22:30:00.432Z,18.20
2018-08-22T22:32:29.535Z,18.20
2018-08-22T22:34:58.456Z,18.20
2018-08-22T22:37:27.571Z,18.20
2018-08-22T22:39:56.511Z,18.20
2018-08-22T22:42:26.532Z,18.20
2018-08-22T22:44:57.055Z,18.20
2018-08-22T22:47:30.173Z,18.20
2018-08-22T22:49:59.798Z,18.10
2018-08-22T22:52:31.347Z,18.10
2018-08-22T22:55:02.409Z,18.10
2018-08-22T22:57:32.634Z,18.10
2018-08-22T23:00:04.423Z,18.10
2018-08-22T23:02:33.823Z,18.00
2018-08-22T23:05:02.969Z,18.10
2018-08-22T23:07:33.812Z,18.10
2018-08-22T23:10:06.717Z,18.00
2018-08-22T23:12:38.614Z,18.00
2018-08-22T23:15:12.563Z,18.00
2018-08-22T23:17:41.883Z,18.00
2018-08-22T23:23:21.734Z,18.00
2018-08-22T23:25:50.809Z,17.90
2018-08-22T23:28:19.711Z,17.90
2018-08-22T23:30:49.012Z,17.90
2018-08-22T23:33:18.040Z,17.90
2018-08-22T23:35:46.935Z,17.90
2018-08-22T23:38:21.222Z,17.90
2018-08-22T23:40:50.111Z,17.90
2018-08-22T23:43:19.009Z,17.90
2018-08-22T23:45:53.211Z,17.90
2018-08-22T23:48:27.579Z,17.80
2018-08-22T23:50:57.591Z,17.80
2018-08-22T23:53:47.259Z,17.80
2018-08-22T23:56:26.707Z,17.80
2018-08-22T23:58:56.209Z,17.80
